Terminal Aerodrome Forecast
Issued by NWS Wilmington, OH

Home | Current Version | Previous Version | Text Only | Print | Product List | Glossary On
Versions: 1 2 3 4 5 6 7 8 9 10 11 12 13 14 15 16 17
000
FTUS41 KILN 271126
TAFDAY
TAF
KDAY 271126Z 2712/2812 20008KT P6SM SCT050 BKN200
      TEMPO 2717/2719 -SHRA
     FM280100 17005KT P6SM BKN250=

USA.gov is the U.S. government's official web portal to all federal, state and local government web resources and services.